Time;durP1;ratioP1;P1;durP2;ratioP2;P2;SDS_P1;SDS_P2;PMS_P1;PMS_P2;Temp;Humidity;BMP_temperature;BMP_pressure;BME280_temperature;BME280_humidity;BME280_pressure;Samples;Min_cycle;Max_cycle;Signal;HPM_P1;HPM_P2
2022/06/16 00:00:02;;;;;;;6.80;6.00;;;;;;;17.51;62.54;95888.25;5009056;28;20479;-80
2022/06/16 00:02:28;;;;;;;10.73;6.22;;;;;;;17.52;62.60;95881.78;5025761;28;20458;-80
2022/06/16 00:04:54;;;;;;;9.40;6.13;;;;;;;17.40;63.02;95881.59;5026269;28;20454;-79
2022/06/16 00:07:19;;;;;;;10.18;6.20;;;;;;;17.39;62.75;95882.63;5008623;28;20045;-78
2022/06/16 00:09:45;;;;;;;7.93;5.38;;;;;;;17.36;62.94;95879.50;4993763;28;20368;-79
2022/06/16 00:12:11;;;;;;;7.03;5.95;;;;;;;17.29;62.78;95883.06;5005504;28;20436;-80
2022/06/16 00:14:36;;;;;;;8.52;5.40;;;;;;;17.26;62.95;95880.75;5010063;28;20022;-80
2022/06/16 00:17:02;;;;;;;8.52;5.47;;;;;;;17.24;62.66;95879.28;5006413;28;20030;-80
2022/06/16 00:19:27;;;;;;;7.82;5.72;;;;;;;17.23;62.84;95885.75;5009281;28;20025;-78
2022/06/16 00:21:53;;;;;;;6.72;5.20;;;;;;;17.17;62.65;95879.28;4990127;28;20033;-79
2022/06/16 00:24:18;;;;;;;7.10;5.28;;;;;;;17.12;62.46;95882.63;4991951;28;20437;-78
2022/06/16 00:26:43;;;;;;;7.53;5.90;;;;;;;17.13;62.39;95888.88;5007381;28;20018;-79
2022/06/16 00:29:09;;;;;;;10.80;5.05;;;;;;;17.03;62.94;95884.69;4987647;28;20026;-79
2022/06/16 00:31:35;;;;;;;8.50;5.47;;;;;;;17.01;63.10;95888.63;5006137;28;20027;-79
2022/06/16 00:34:00;;;;;;;6.50;5.55;;;;;;;17.00;63.25;95886.97;4991406;28;20256;-79
2022/06/16 00:36:26;;;;;;;7.75;5.35;;;;;;;16.99;63.21;95885.28;5008501;28;20033;-79
2022/06/16 00:38:51;;;;;;;8.20;5.57;;;;;;;16.92;63.17;95875.28;4990657;28;20044;-79
2022/06/16 00:41:17;;;;;;;7.57;5.88;;;;;;;16.88;63.15;95884.03;5006285;28;20044;-80
2022/06/16 00:43:42;;;;;;;12.85;5.32;;;;;;;16.89;62.93;95869.44;4992815;28;20029;-79
2022/06/16 00:46:12;;;;;;;8.45;5.50;;;;;;;16.89;62.92;95869.44;5007020;28;20496;-79
2022/06/16 00:48:51;;;;;;;7.95;5.25;;;;;;;16.85;62.74;95874.44;5009105;28;20033;-79
2022/06/16 00:51:20;;;;;;;6.70;5.72;;;;;;;16.88;62.60;95873.19;4989858;28;20377;-79
2022/06/16 00:53:46;;;;;;;9.65;5.90;;;;;;;16.82;63.03;95866.72;5026691;28;20025;-79
2022/06/16 00:56:16;;;;;;;7.78;5.32;;;;;;;16.84;63.41;95867.34;4992323;28;20112;-78
2022/06/16 00:58:42;;;;;;;8.88;5.70;;;;;;;16.81;63.35;95874.00;5006349;28;20029;-78
2022/06/16 01:01:08;;;;;;;7.47;5.40;;;;;;;16.78;62.85;95879.00;5007883;28;20032;-79
2022/06/16 01:06:19;;;;;;;8.60;5.25;;;;;;;16.78;63.29;95879.84;5012422;28;20060;-79
2022/06/16 01:08:45;;;;;;;7.38;4.70;;;;;;;16.78;62.59;95868.19;5021607;28;20145;-78
2022/06/16 01:13:41;;;;;;;14.73;5.68;;;;;;;16.77;62.68;95869.19;4992377;28;20033;-77
2022/06/16 01:14:02;;;;;;;6.75;5.53;;;;;;;16.71;63.13;95864.59;5011005;28;20025;-79
2022/06/16 01:16:37;;;;;;;8.73;5.30;;;;;;;16.71;63.46;95875.44;4991844;28;20115;-78
2022/06/16 01:19:29;;;;;;;9.15;5.88;;;;;;;16.68;64.16;95874.81;5007753;28;20033;-79
2022/06/16 01:22:01;;;;;;;6.53;5.72;;;;;;;16.68;64.10;95863.16;5007908;28;20106;-79
2022/06/16 01:25:20;;;;;;;9.90;5.55;;;;;;;16.61;63.62;95873.97;5023532;28;20175;-79
2022/06/16 01:27:54;;;;;;;6.80;5.22;;;;;;;16.58;63.52;95858.13;4981410;28;20085;-79
2022/06/16 01:30:24;;;;;;;8.25;5.38;;;;;;;16.61;64.16;95856.88;5017655;28;20045;-80
2022/06/16 01:33:10;;;;;;;7.15;5.72;;;;;;;16.50;64.23;95863.72;5025850;28;20032;-81
2022/06/16 01:35:36;;;;;;;7.60;5.63;;;;;;;16.49;64.16;95860.19;5003921;28;20067;-81
2022/06/16 01:38:16;;;;;;;5.72;5.13;;;;;;;16.49;63.95;95860.19;5026584;28;20096;-80
2022/06/16 01:40:49;;;;;;;6.82;5.47;;;;;;;16.51;64.65;95863.53;5028416;28;20041;-79
2022/06/16 01:43:28;;;;;;;6.88;5.75;;;;;;;16.54;63.81;95857.69;5012128;28;20030;-81
2022/06/16 01:46:01;;;;;;;9.63;5.90;;;;;;;16.51;63.24;95858.13;5008440;28;20037;-80
2022/06/16 01:48:27;;;;;;;7.55;4.95;;;;;;;16.48;63.09;95858.53;5012346;28;20033;-79
2022/06/16 01:50:55;;;;;;;8.40;5.18;;;;;;;16.38;64.16;95858.09;5011943;28;20176;-78
2022/06/16 01:53:29;;;;;;;7.00;5.53;;;;;;;16.36;64.49;95852.03;4995271;28;20116;-79
2022/06/16 01:56:01;;;;;;;8.00;5.88;;;;;;;16.34;64.61;95854.94;5009955;28;20037;-79
2022/06/16 01:58:29;;;;;;;7.65;5.50;;;;;;;16.30;64.39;95859.06;5010828;28;20039;-80
2022/06/16 02:00:56;;;;;;;6.97;5.13;;;;;;;16.26;63.80;95852.41;5011629;28;20440;-79
2022/06/16 02:03:27;;;;;;;9.15;5.85;;;;;;;16.29;63.45;95849.31;5011291;28;20029;-79
2022/06/16 02:05:54;;;;;;;5.97;5.15;;;;;;;16.28;63.43;95853.06;4993163;28;20033;-79
2022/06/16 02:08:25;;;;;;;6.07;5.40;;;;;;;16.28;63.54;95858.47;5028221;28;20033;-80
2022/06/16 02:11:02;;;;;;;6.85;4.97;;;;;;;16.31;63.67;95866.19;5012797;28;20415;-80
2022/06/16 02:13:30;;;;;;;7.35;5.22;;;;;;;16.23;63.84;95860.94;5011921;28;20387;-79
2022/06/16 02:16:24;;;;;;;9.30;5.40;;;;;;;16.25;63.59;95853.47;4992015;28;20072;-79
2022/06/16 02:18:51;;;;;;;8.07;5.40;;;;;;;16.27;63.08;95863.03;5013180;28;20144;-79
2022/06/16 02:21:36;;;;;;;7.65;5.55;;;;;;;16.23;63.36;95866.34;4994882;28;20044;-79
2022/06/16 02:24:02;;;;;;;6.82;5.78;;;;;;;16.17;63.63;95865.28;5010000;28;20103;-80
2022/06/16 02:26:28;;;;;;;7.70;5.97;;;;;;;16.14;63.93;95855.69;5008913;28;20507;-79
2022/06/16 02:28:55;;;;;;;8.43;5.05;;;;;;;16.15;63.86;95861.97;4995291;28;20041;-78
2022/06/16 02:31:54;;;;;;;7.53;5.45;;;;;;;16.17;64.08;95862.56;5025642;28;20579;-80
2022/06/16 02:34:54;;;;;;;10.13;6.25;;;;;;;16.13;63.87;95864.88;5027268;28;20056;-80
2022/06/16 02:37:58;;;;;;;6.65;5.55;;;;;;;16.10;63.84;95873.38;5012940;28;20411;-80
2022/06/16 02:40:23;;;;;;;7.85;5.68;;;;;;;16.03;64.39;95878.75;5015729;28;20033;-81
2022/06/16 02:43:04;;;;;;;8.30;5.90;;;;;;;16.04;64.49;95875.00;5026874;28;20025;-80
2022/06/16 02:45:48;;;;;;;8.05;5.68;;;;;;;16.06;63.97;95882.91;5026218;28;20326;-80
2022/06/16 02:48:35;;;;;;;7.22;5.60;;;;;;;16.09;64.02;95881.72;5027053;28;20275;-81
2022/06/16 02:51:17;;;;;;;8.20;5.85;;;;;;;16.04;64.22;95887.72;5026960;28;20076;-80
2022/06/16 02:54:23;;;;;;;8.03;6.10;;;;;;;16.01;64.24;95878.13;5025046;28;20583;-80
2022/06/16 02:56:57;;;;;;;9.40;6.40;;;;;;;15.98;64.38;95875.81;5013996;28;20287;-81
2022/06/16 02:59:26;;;;;;;7.53;6.15;;;;;;;15.89;64.76;95891.34;5027572;28;20091;-81
2022/06/16 03:01:52;;;;;;;6.70;6.00;;;;;;;15.93;64.50;95883.66;5010263;28;20061;-80
2022/06/16 03:04:17;;;;;;;7.22;6.28;;;;;;;15.94;64.42;95879.94;4992785;28;20045;-81
2022/06/16 03:06:43;;;;;;;8.32;6.00;;;;;;;15.93;64.41;95884.50;4991959;28;20064;-79
2022/06/16 03:09:09;;;;;;;8.77;5.75;;;;;;;15.87;64.41;95885.31;5010956;28;20632;-81
2022/06/16 03:11:35;;;;;;;6.65;5.75;;;;;;;15.76;64.78;95889.41;4991960;28;20030;-80
2022/06/16 03:14:00;;;;;;;8.82;5.60;;;;;;;15.79;64.73;95877.34;4992415;28;20041;-81
2022/06/16 03:16:26;;;;;;;13.32;6.50;;;;;;;15.86;64.56;95883.66;5009195;28;20068;-80
2022/06/16 03:18:51;;;;;;;8.75;5.93;;;;;;;15.86;64.92;95878.25;5010137;28;20484;-80
2022/06/16 03:21:17;;;;;;;9.07;5.95;;;;;;;16.02;65.10;95881.66;5010081;28;20111;-81
2022/06/16 03:23:42;;;;;;;8.07;6.03;;;;;;;16.05;64.42;95881.25;5025941;28;20040;-81
2022/06/16 03:26:08;;;;;;;10.05;5.78;;;;;;;16.10;64.29;95888.78;5026127;28;20083;-78
2022/06/16 03:28:33;;;;;;;8.55;5.82;;;;;;;16.15;63.93;95881.72;5008874;28;20124;-79
2022/06/16 03:30:59;;;;;;;8.77;5.50;;;;;;;16.15;64.03;95881.72;4993115;28;20041;-80
2022/06/16 03:33:24;;;;;;;7.93;6.68;;;;;;;16.18;64.11;95881.34;5009558;28;20026;-78
2022/06/16 03:35:50;;;;;;;7.30;6.03;;;;;;;16.17;64.40;95874.25;5007126;28;20022;-79
2022/06/16 03:40:56;;;;;;;6.40;5.75;;;;;;;16.16;64.60;95869.88;5010339;28;20056;-79
2022/06/16 03:43:22;;;;;;;10.55;6.28;;;;;;;16.20;64.37;95870.31;4993464;28;20021;-79
2022/06/16 03:45:47;;;;;;;7.50;5.95;;;;;;;16.24;64.32;95878.84;5004763;28;20127;-80
2022/06/16 03:48:13;;;;;;;10.82;7.00;;;;;;;16.24;64.81;95876.13;4994052;28;20443;-79
2022/06/16 03:50:39;;;;;;;8.00;6.22;;;;;;;16.26;66.02;95876.78;5008771;28;20492;-77
2022/06/16 03:53:04;;;;;;;8.73;5.82;;;;;;;16.37;64.34;95878.91;5008476;28;20033;-78
2022/06/16 03:55:31;;;;;;;8.35;6.63;;;;;;;16.35;64.72;95880.97;5024071;28;20116;-79
2022/06/16 03:57:57;;;;;;;9.82;6.32;;;;;;;16.44;65.36;95878.94;5008045;28;20033;-78
2022/06/16 04:00:23;;;;;;;6.32;5.57;;;;;;;16.45;65.06;95875.16;5010773;28;20022;-79
2022/06/16 04:03:59;;;;;;;7.95;5.95;;;;;;;16.56;64.54;95876.44;4990564;28;20053;-79
2022/06/16 04:05:34;;;;;;;10.52;6.82;;;;;;;16.59;64.66;95880.63;5010231;28;20583;-78
2022/06/16 04:07:59;;;;;;;9.02;6.57;;;;;;;16.65;64.27;95877.94;5007957;28;20212;-78
2022/06/16 04:10:25;;;;;;;12.80;6.80;;;;;;;16.73;63.98;95886.91;5009402;28;20036;-79
2022/06/16 04:12:51;;;;;;;10.43;6.50;;;;;;;16.80;63.79;95877.75;5024536;28;20061;-79
2022/06/16 04:15:16;;;;;;;8.82;6.65;;;;;;;16.89;63.73;95881.13;4989267;28;20492;-79
2022/06/16 04:17:42;;;;;;;10.68;7.40;;;;;;;16.90;64.04;95884.66;4993686;28;20044;-79
2022/06/16 04:20:13;;;;;;;8.50;6.43;;;;;;;17.01;64.09;95888.63;5007200;28;20043;-79
2022/06/16 04:22:40;;;;;;;10.33;6.87;;;;;;;17.08;63.96;95883.22;4995452;28;20031;-79
2022/06/16 04:25:08;;;;;;;10.40;6.10;;;;;;;17.17;63.98;95882.84;5008108;28;20279;-81
2022/06/16 04:27:34;;;;;;;8.75;6.15;;;;;;;17.30;63.46;95892.00;5009946;28;20037;-80
2022/06/16 04:30:00;;;;;;;7.72;5.88;;;;;;;17.35;63.17;95883.25;5024601;28;20032;-79
2022/06/16 04:32:25;;;;;;;8.88;6.70;;;;;;;17.31;62.25;95888.28;4989785;28;20026;-80
2022/06/16 04:34:51;;;;;;;9.15;6.13;;;;;;;17.39;61.78;95879.09;5000192;28;20026;-81
2022/06/16 04:37:17;;;;;;;7.68;6.28;;;;;;;17.42;61.99;95879.50;4992774;28;20029;-79
2022/06/16 04:39:43;;;;;;;8.15;6.28;;;;;;;17.50;61.77;95881.16;5009863;28;20496;-80
2022/06/16 04:42:08;;;;;;;9.45;6.53;;;;;;;17.62;62.06;95883.25;5022613;28;20021;-79
2022/06/16 04:44:40;;;;;;;12.77;6.80;;;;;;;17.68;61.91;95882.41;4989374;28;20037;-81
2022/06/16 04:47:09;;;;;;;9.40;6.85;;;;;;;17.78;61.51;95885.50;5009901;28;20148;-81
2022/06/16 04:49:35;;;;;;;9.88;6.78;;;;;;;17.72;61.41;95889.06;5004911;28;20045;-78
2022/06/16 04:52:01;;;;;;;14.52;6.75;;;;;;;17.86;61.25;95886.31;5040517;28;20033;-80
2022/06/16 04:54:27;;;;;;;11.10;6.40;;;;;;;17.94;60.80;95886.09;5020500;28;20056;-78
2022/06/16 04:56:52;;;;;;;8.85;6.30;;;;;;;17.94;60.95;95879.84;5024848;28;20036;-79
2022/06/16 04:59:18;;;;;;;9.32;7.20;;;;;;;17.87;60.60;95880.69;4990210;28;20059;-77
2022/06/16 05:01:43;;;;;;;11.05;6.78;;;;;;;18.09;60.66;95888.53;5025570;28;20030;-79
2022/06/16 05:04:09;;;;;;;7.75;6.82;;;;;;;18.24;60.22;95885.63;5021758;28;20189;-78
2022/06/16 05:06:35;;;;;;;10.68;6.93;;;;;;;18.36;60.05;95882.22;5007580;28;20083;-78
2022/06/16 05:09:00;;;;;;;7.22;6.53;;;;;;;18.44;60.62;95881.16;4991441;28;20042;-77
2022/06/16 05:11:25;;;;;;;9.43;7.10;;;;;;;18.48;59.99;95877.78;5007222;28;20393;-77
2022/06/16 05:13:51;;;;;;;6.93;6.22;;;;;;;18.48;60.25;95880.50;5005465;28;20022;-78
2022/06/16 05:16:16;;;;;;;9.50;7.13;;;;;;;18.55;59.87;95880.47;5020761;28;20029;-76
2022/06/16 05:18:43;;;;;;;10.13;6.70;;;;;;;18.63;59.95;95880.22;5025286;28;20033;-78
2022/06/16 05:21:13;;;;;;;8.27;6.38;;;;;;;18.77;59.31;95888.28;5053578;28;20107;-77
2022/06/16 05:23:39;;;;;;;13.98;8.05;;;;;;;18.89;58.87;95888.44;5023887;28;20032;-77
2022/06/16 05:26:05;;;;;;;10.20;6.43;;;;;;;18.88;58.50;95884.03;4991151;28;20876;-77
2022/06/16 05:28:31;;;;;;;8.57;6.70;;;;;;;18.95;58.90;95886.72;5037653;28;20065;-76
2022/06/16 05:30:56;;;;;;;11.05;6.65;;;;;;;19.09;58.51;95885.59;5015125;28;20381;-75
2022/06/16 05:33:22;;;;;;;10.38;6.47;;;;;;;19.26;58.95;95893.22;5003749;28;20318;-80
2022/06/16 05:36:05;;;;;;;8.88;6.10;;;;;;;19.35;59.15;95897.34;5023964;28;20078;-76
2022/06/16 05:38:30;;;;;;;8.70;6.25;;;;;;;19.47;57.84;95893.91;5005534;28;20029;-76
2022/06/16 05:41:04;;;;;;;8.02;6.50;;;;;;;19.39;58.15;95898.53;5018986;28;20412;-79
2022/06/16 05:43:29;;;;;;;7.78;6.63;;;;;;;19.49;57.64;95897.22;5002208;28;20030;-79
2022/06/16 05:45:55;;;;;;;8.45;6.70;;;;;;;19.49;57.75;95897.22;5019308;28;20450;-78
2022/06/16 05:48:20;;;;;;;8.60;7.20;;;;;;;19.37;57.57;95894.38;5008782;28;20099;-77
2022/06/16 05:50:46;;;;;;;10.43;7.22;;;;;;;19.26;58.30;95901.38;5004826;28;20523;-76
2022/06/16 05:53:11;;;;;;;12.23;6.75;;;;;;;19.48;57.56;95901.84;5020835;28;20030;-76
2022/06/16 05:55:37;;;;;;;11.38;6.88;;;;;;;19.59;57.25;95902.97;5003604;28;20034;-85
2022/06/16 05:58:02;;;;;;;8.63;7.65;;;;;;;19.80;57.82;95895.47;5025233;28;20018;-83
2022/06/16 06:00:29;;;;;;;7.80;6.47;;;;;;;19.93;57.47;95899.94;5006715;28;20475;-81
2022/06/16 06:02:58;;;;;;;13.63;7.07;;;;;;;20.00;57.11;95895.28;4992522;28;20539;-77
2022/06/16 06:05:24;;;;;;;11.48;6.63;;;;;;;20.12;56.95;95897.25;5019834;28;20116;-77
2022/06/16 06:18:45;;;;;;;11.40;9.15;;;;;;;20.30;57.61;95893.72;5023033;28;20033;-77
2022/06/16 06:21:10;;;;;;;14.77;9.15;;;;;;;20.17;58.21;95894.69;5023797;28;20025;-76
2022/06/16 06:23:36;;;;;;;13.57;9.93;;;;;;;20.19;60.00;95895.31;5006386;28;20036;-76
2022/06/16 06:26:01;;;;;;;14.27;10.30;;;;;;;20.23;58.46;95896.50;5024537;28;20026;-77
2022/06/16 06:28:27;;;;;;;18.42;10.15;;;;;;;20.23;58.34;95898.41;5027925;28;20484;-78
2022/06/16 06:30:52;;;;;;;11.93;9.57;;;;;;;20.30;58.77;95899.16;5025702;28;20036;-76
2022/06/16 06:33:18;;;;;;;17.73;10.50;;;;;;;20.40;58.90;95892.34;5029251;28;20566;-77
2022/06/16 06:35:43;;;;;;;19.83;10.98;;;;;;;20.35;58.33;95895.75;5023641;28;20084;-77
2022/06/16 06:38:09;;;;;;;13.90;10.88;;;;;;;20.51;58.92;95899.75;5011105;28;20034;-78
2022/06/16 06:40:35;;;;;;;17.67;10.90;;;;;;;20.68;57.49;95899.13;5026970;28;20481;-78
2022/06/16 06:43:01;;;;;;;13.90;10.70;;;;;;;20.79;58.91;95890.16;5011036;28;20108;-78
2022/06/16 06:45:26;;;;;;;13.07;10.13;;;;;;;20.84;57.47;95895.75;4989992;28;20556;-79
2022/06/16 06:47:52;;;;;;;13.88;10.98;;;;;;;20.90;58.87;95896.72;5008565;28;20053;-79
2022/06/16 06:50:19;;;;;;;13.88;11.95;;;;;;;20.86;58.09;95887.34;5027749;28;20037;-78
2022/06/16 06:52:45;;;;;;;15.20;11.98;;;;;;;20.78;58.04;95888.47;5025136;28;20448;-79
2022/06/16 06:55:10;;;;;;;18.65;11.98;;;;;;;20.80;59.02;95891.81;5026675;28;20449;-77
2022/06/16 06:57:35;;;;;;;19.63;13.20;;;;;;;20.85;59.68;95883.78;5025838;28;20412;-79
2022/06/16 07:00:01;;;;;;;17.90;11.63;;;;;;;20.88;58.69;95883.31;5010674;28;20446;-80
2022/06/16 07:02:26;;;;;;;17.83;12.43;;;;;;;21.07;58.79;95885.19;4992836;28;20036;-79
2022/06/16 07:04:53;;;;;;;20.38;13.00;;;;;;;21.12;57.78;95891.59;5024348;28;20037;-77
2022/06/16 07:07:20;;;;;;;17.77;12.95;;;;;;;21.10;58.55;95888.25;5026783;28;20050;-79
2022/06/16 07:09:46;;;;;;;17.83;12.25;;;;;;;21.05;58.21;95885.44;5022447;28;20539;-79
2022/06/16 07:12:14;;;;;;;21.48;13.30;;;;;;;20.84;58.23;95887.59;5019832;28;20025;-77
2022/06/16 07:14:41;;;;;;;21.77;13.50;;;;;;;21.16;58.50;95882.94;5023791;28;20025;-80
2022/06/16 07:17:06;;;;;;;16.52;12.48;;;;;;;21.08;59.25;95882.22;5026689;28;20028;-80
2022/06/16 07:19:34;;;;;;;16.25;13.13;;;;;;;21.21;58.78;95875.75;5027006;28;20025;-80
2022/06/16 07:22:00;;;;;;;18.75;13.57;;;;;;;21.43;58.06;95883.34;5009249;28;20135;-80
2022/06/16 07:24:25;;;;;;;20.00;13.70;;;;;;;21.47;57.68;95875.53;5009104;28;20030;-81
2022/06/16 07:26:51;;;;;;;19.13;13.73;;;;;;;21.61;57.32;95879.69;5025213;28;20028;-80
2022/06/16 07:29:16;;;;;;;19.55;13.35;;;;;;;21.65;57.81;95873.75;5028829;28;20025;-80
2022/06/16 07:31:42;;;;;;;17.20;13.38;;;;;;;21.63;57.39;95870.44;5023483;28;20033;-80
2022/06/16 07:34:07;;;;;;;19.60;14.25;;;;;;;21.64;58.02;95875.66;5024206;28;20045;-82
2022/06/16 07:36:32;;;;;;;19.35;14.60;;;;;;;21.49;58.12;95870.66;5020531;28;20377;-80
2022/06/16 07:38:58;;;;;;;21.27;14.13;;;;;;;21.40;57.85;95872.06;4987240;28;20519;-80
2022/06/16 07:41:34;;;;;;;20.65;14.40;;;;;;;21.53;59.40;95855.50;5007235;28;20041;-81
2022/06/16 07:44:01;;;;;;;17.73;14.57;;;;;;;21.53;58.21;95860.94;5024121;28;20071;-81
2022/06/16 07:46:26;;;;;;;18.17;13.13;;;;;;;21.60;58.53;95863.56;4993179;28;20026;-80
2022/06/16 07:48:52;;;;;;;17.90;13.57;;;;;;;21.70;56.74;95857.53;5024466;28;20056;-80
2022/06/16 07:51:18;;;;;;;19.08;14.57;;;;;;;21.96;57.88;95861.66;5010608;28;20037;-81
2022/06/16 07:53:44;;;;;;;21.90;14.88;;;;;;;22.01;55.73;95860.94;5023040;28;20029;-81
2022/06/16 07:56:09;;;;;;;23.33;14.68;;;;;;;22.21;56.00;95874.22;5026399;28;20022;-81
2022/06/16 07:58:35;;;;;;;19.75;14.73;;;;;;;22.19;55.71;95870.06;5026892;28;20038;-81
2022/06/16 08:01:00;;;;;;;17.20;14.63;;;;;;;22.02;56.44;95862.59;5005583;28;20025;-78
2022/06/16 08:03:29;;;;;;;20.20;14.50;;;;;;;22.03;55.02;95868.91;5008470;28;20057;-78
2022/06/16 08:05:55;;;;;;;18.23;14.60;;;;;;;22.17;57.62;95867.56;5018434;28;20030;-77
2022/06/16 08:08:24;;;;;;;19.65;14.95;;;;;;;21.79;56.03;95860.72;5009736;28;20578;-78
2022/06/16 08:10:53;;;;;;;19.92;15.30;;;;;;;21.81;56.27;95861.34;5007519;28;20507;-78
2022/06/16 08:13:19;;;;;;;19.73;14.98;;;;;;;22.08;54.43;95864.41;5023552;28;20172;-77
2022/06/16 08:15:46;;;;;;;16.90;13.98;;;;;;;22.29;53.91;95867.56;4983790;28;20107;-78
2022/06/16 08:18:16;;;;;;;21.63;14.88;;;;;;;22.39;53.27;95866.09;4989048;28;20018;-78
2022/06/16 08:20:42;;;;;;;19.63;14.43;;;;;;;22.60;55.30;95870.91;5002131;28;20526;-78
2022/06/16 08:23:08;;;;;;;16.70;14.43;;;;;;;22.67;56.04;95872.69;4999695;28;20034;-77
2022/06/16 08:25:33;;;;;;;18.38;13.70;;;;;;;22.74;55.20;95870.66;5001067;28;20025;-77
2022/06/16 08:27:59;;;;;;;18.35;13.98;;;;;;;22.72;52.97;95870.88;5023093;28;20038;-78
2022/06/16 08:30:25;;;;;;;18.50;13.82;;;;;;;22.64;52.19;95873.16;5019519;28;20033;-77
2022/06/16 08:32:51;;;;;;;17.55;14.68;;;;;;;22.42;52.86;95876.53;5006901;28;20077;-77
2022/06/16 08:35:16;;;;;;;21.63;14.40;;;;;;;22.35;52.62;95869.31;5020403;28;20463;-77
2022/06/16 08:37:42;;;;;;;17.75;14.30;;;;;;;22.56;53.66;95863.41;5025620;28;20183;-77
2022/06/16 08:40:08;;;;;;;16.95;13.98;;;;;;;22.70;52.17;95862.09;5021918;28;20067;-77
2022/06/16 08:43:08;;;;;;;18.20;13.65;;;;;;;22.72;51.83;95861.84;5004785;28;20053;-77
2022/06/16 08:45:37;;;;;;;17.08;14.40;;;;;;;22.83;52.46;95852.75;5030651;28;20247;-77
2022/06/16 08:48:26;;;;;;;17.40;15.15;;;;;;;23.02;52.92;95863.47;5001667;28;20413;-78
2022/06/16 08:50:58;;;;;;;16.45;13.30;;;;;;;23.12;52.50;95862.84;5021865;28;20504;-78
2022/06/16 08:53:27;;;;;;;13.52;11.25;;;;;;;23.13;47.37;95858.19;5024762;28;20116;-78
2022/06/16 08:55:57;;;;;;;18.30;14.02;;;;;;;23.20;49.97;95847.91;5017835;28;20637;-78
2022/06/16 08:58:35;;;;;;;15.52;13.77;;;;;;;23.08;51.65;95857.06;5024557;28;20029;-79
2022/06/16 09:01:11;;;;;;;16.73;12.75;;;;;;;23.18;49.73;95847.34;5024721;28;20088;-78
2022/06/16 09:03:56;;;;;;;15.65;13.40;;;;;;;23.20;50.82;95858.84;5008929;28;20052;-82
2022/06/16 09:06:48;;;;;;;14.70;12.30;;;;;;;23.28;49.99;95852.16;5006683;28;20092;-81
2022/06/16 09:12:22;;;;;;;14.57;12.95;;;;;;;23.06;50.13;95858.34;5018677;28;20529;-77
2022/06/16 09:15:11;;;;;;;14.32;12.02;;;;;;;23.27;49.11;95848.59;5021677;28;20029;-78
2022/06/16 09:17:48;;;;;;;16.15;13.25;;;;;;;23.20;48.83;95842.44;5009560;28;20041;-78
2022/06/16 09:20:34;;;;;;;17.77;13.52;;;;;;;23.27;49.21;95842.28;5023897;28;20036;-78
2022/06/16 09:23:18;;;;;;;14.63;12.13;;;;;;;23.35;46.81;95847.34;5008099;28;20025;-78
2022/06/16 09:25:48;;;;;;;14.85;12.07;;;;;;;23.36;47.91;95832.56;5021514;28;20048;-78
2022/06/16 09:28:31;;;;;;;12.57;10.52;;;;;;;23.31;45.08;95833.31;5018163;28;20499;-78
2022/06/16 09:30:58;;;;;;;12.80;10.48;;;;;;;23.14;45.08;95827.03;5016993;28;20069;-78
2022/06/16 09:33:28;;;;;;;12.93;10.77;;;;;;;23.28;45.44;95820.16;5005197;28;20030;-78
2022/06/16 09:35:59;;;;;;;12.25;10.27;;;;;;;23.11;45.72;95822.06;5004905;28;20574;-79
2022/06/16 09:38:24;;;;;;;13.20;11.23;;;;;;;23.25;46.63;95823.38;5007274;28;20052;-79
2022/06/16 09:40:58;;;;;;;13.82;11.65;;;;;;;23.36;47.92;95820.81;5021729;28;20459;-78
2022/06/16 09:43:35;;;;;;;20.00;11.02;;;;;;;23.55;50.53;95819.50;5024409;28;20032;-78
2022/06/16 09:46:00;;;;;;;16.70;11.82;;;;;;;23.82;47.01;95813.31;5019785;28;20060;-78
2022/06/16 09:48:33;;;;;;;14.52;10.65;;;;;;;23.75;45.20;95809.94;5025249;28;20105;-79
2022/06/16 09:51:04;;;;;;;11.38;10.27;;;;;;;24.01;44.94;95807.53;4990709;28;20172;-77
2022/06/16 09:54:09;;;;;;;14.32;9.93;;;;;;;24.20;44.07;95804.50;5024643;28;20029;-77
2022/06/16 09:56:40;;;;;;;12.52;9.60;;;;;;;24.25;42.86;95806.47;4965935;28;20018;-78
2022/06/16 09:59:11;;;;;;;11.10;8.68;;;;;;;24.32;43.43;95812.59;4996965;28;20071;-79
2022/06/16 10:01:40;;;;;;;10.85;9.55;;;;;;;24.22;42.13;95804.25;5012786;28;20045;-79
2022/06/16 10:04:07;;;;;;;13.80;9.40;;;;;;;24.08;42.05;95807.34;5008855;28;20152;-77
2022/06/16 10:07:15;;;;;;;13.45;9.65;;;;;;;24.12;41.59;95800.28;5011518;28;20424;-77
2022/06/16 10:10:08;;;;;;;11.70;9.45;;;;;;;24.39;45.15;95796.78;5026138;28;20030;-78
2022/06/16 10:12:52;;;;;;;10.77;9.65;;;;;;;24.47;42.74;95792.78;5022385;28;20037;-79
2022/06/16 10:15:38;;;;;;;10.98;9.50;;;;;;;24.51;46.14;95799.38;5023903;28;20033;-76
2022/06/16 10:18:04;;;;;;;11.75;9.00;;;;;;;24.45;42.95;95794.94;5022214;28;20034;-77
2022/06/16 10:20:30;;;;;;;11.65;9.25;;;;;;;24.38;40.60;95794.28;5016384;28;20275;-76
2022/06/16 10:23:00;;;;;;;11.73;9.35;;;;;;;24.47;42.44;95780.97;5012106;28;20034;-76
2022/06/16 10:25:35;;;;;;;10.35;9.15;;;;;;;24.51;41.28;95777.44;5024462;28;20030;-76
2022/06/16 10:28:19;;;;;;;12.27;9.82;;;;;;;24.49;42.07;95778.81;5010049;28;20030;-76
2022/06/16 10:30:44;;;;;;;12.10;9.50;;;;;;;24.50;42.99;95781.28;5027241;28;20025;-76
2022/06/16 10:33:18;;;;;;;11.77;9.02;;;;;;;24.67;44.40;95778.44;5008701;28;20036;-76
2022/06/16 10:36:00;;;;;;;10.82;9.35;;;;;;;24.86;43.61;95771.75;5024772;28;20132;-75
2022/06/16 10:38:31;;;;;;;11.35;9.18;;;;;;;24.84;39.81;95768.44;5010002;28;20478;-76
2022/06/16 10:40:57;;;;;;;9.98;8.95;;;;;;;24.77;40.11;95766.75;5027981;28;20034;-77
2022/06/16 10:43:23;;;;;;;11.18;9.32;;;;;;;24.74;42.05;95770.00;5008830;28;20017;-76
2022/06/16 10:46:02;;;;;;;10.05;9.05;;;;;;;24.82;40.28;95774.19;5007403;28;20033;-77
2022/06/16 10:48:32;;;;;;;10.57;9.48;;;;;;;24.79;40.78;95772.81;5024599;28;20451;-77
2022/06/16 10:51:06;;;;;;;11.45;9.07;;;;;;;24.73;40.94;95771.06;5022760;28;20053;-77
2022/06/16 10:53:36;;;;;;;10.80;8.60;;;;;;;24.80;41.28;95768.97;5026608;28;20021;-77
2022/06/16 10:56:10;;;;;;;11.32;8.88;;;;;;;24.86;42.21;95760.78;5005083;28;20037;-76
2022/06/16 10:59:04;;;;;;;12.15;9.38;;;;;;;24.82;40.93;95779.66;5026948;28;20116;-75
2022/06/16 11:01:47;;;;;;;12.45;10.07;;;;;;;25.01;42.28;95762.84;5024587;28;20037;-75
2022/06/16 11:04:23;;;;;;;10.55;9.45;;;;;;;24.76;40.36;95769.75;5024202;28;20028;-77
2022/06/16 11:06:54;;;;;;;12.50;9.80;;;;;;;24.87;39.29;95763.28;5024944;28;20057;-75
2022/06/16 11:09:20;;;;;;;12.60;9.60;;;;;;;24.60;40.39;95763.28;5010766;28;20445;-76
2022/06/16 11:12:00;;;;;;;13.48;10.50;;;;;;;24.80;41.16;95758.00;5008364;28;20038;-77
2022/06/16 11:15:08;;;;;;;11.93;9.95;;;;;;;24.82;39.37;95757.72;5008642;28;20053;-78
2022/06/16 11:17:40;;;;;;;11.50;10.30;;;;;;;24.96;40.66;95765.53;5013952;28;20120;-77
2022/06/16 11:20:11;;;;;;;11.52;9.93;;;;;;;25.24;42.65;95767.16;5028309;28;20044;-78
2022/06/16 11:22:41;;;;;;;11.07;9.75;;;;;;;25.46;39.45;95749.72;5026712;28;20048;-76
2022/06/16 11:25:32;;;;;;;13.85;9.38;;;;;;;25.48;38.85;95749.47;5006932;28;20051;-74
2022/06/16 11:28:07;;;;;;;11.43;9.52;;;;;;;25.42;39.30;95748.63;5023897;28;20033;-77
2022/06/16 11:30:37;;;;;;;10.68;9.23;;;;;;;25.52;39.88;95743.16;5024832;28;20116;-75
2022/06/16 11:33:03;;;;;;;10.82;9.57;;;;;;;25.52;39.18;95751.41;5025909;28;20476;-76
2022/06/16 11:35:53;;;;;;;11.93;10.07;;;;;;;25.51;40.79;95749.75;5022516;28;20028;-77
2022/06/16 11:38:21;;;;;;;12.27;9.38;;;;;;;25.55;38.74;95745.38;5010357;28;20033;-75
2022/06/16 11:41:13;;;;;;;10.45;9.35;;;;;;;25.54;38.31;95745.66;5023316;28;20026;-76
2022/06/16 11:43:48;;;;;;;11.48;10.15;;;;;;;25.59;38.80;95744.84;5013366;28;20033;-77
2022/06/16 11:47:03;;;;;;;10.68;9.50;;;;;;;25.50;38.61;95748.13;5018127;28;20041;-77
2022/06/16 11:49:36;;;;;;;11.70;9.77;;;;;;;25.19;39.12;95734.19;4977509;28;20041;-75
2022/06/16 11:52:20;;;;;;;11.65;10.02;;;;;;;25.24;40.44;95734.22;5017601;28;20556;-77
2022/06/16 11:54:59;;;;;;;10.95;9.43;;;;;;;25.35;41.02;95731.53;5022480;28;20025;-76
2022/06/16 11:57:34;;;;;;;12.43;9.73;;;;;;;25.44;39.05;95732.69;5025821;28;20026;-78
2022/06/16 12:00:08;;;;;;;11.70;9.85;;;;;;;25.50;39.00;95737.13;5009630;28;20603;-79
2022/06/16 12:02:52;;;;;;;12.75;9.55;;;;;;;25.47;37.84;95729.41;5026051;28;20029;-79